Time;durP1;ratioP1;P1;durP2;ratioP2;P2;SDS_P1;SDS_P2;PMS_P1;PMS_P2;Temp;Humidity;BMP_temperature;BMP_pressure;BME280_temperature;BME280_humidity;BME280_pressure;Samples;Min_cycle;Max_cycle;Signal;HPM_P1;HPM_P2
2022/09/06 00:01:25;;;;;;;6.10;2.88;;;;;;;26.35;34.80;101568.56;4214005;28;20040;-63
2022/09/06 00:03:27;;;;;;;4.70;2.75;;;;;;;26.35;34.95;101569.41;4216425;28;20135;-62
2022/09/06 00:05:29;;;;;;;3.55;2.67;;;;;;;26.32;35.08;101558.78;4214428;28;20127;-62
2022/09/06 00:07:31;;;;;;;5.10;3.08;;;;;;;26.33;34.96;101571.66;4210376;28;20101;-62
2022/09/06 00:09:35;;;;;;;3.20;2.33;;;;;;;26.34;35.27;101573.34;4197948;28;20045;-63
2022/09/06 00:11:37;;;;;;;9.43;3.33;;;;;;;26.35;35.83;101575.00;4196547;28;20043;-62
2022/09/06 00:13:39;;;;;;;5.50;3.20;;;;;;;26.36;35.10;101576.69;4199824;28;20074;-62
2022/09/06 00:15:40;;;;;;;5.22;2.85;;;;;;;26.38;35.20;101584.78;4189356;28;20044;-62
2022/09/06 00:17:43;;;;;;;3.00;2.67;;;;;;;26.39;35.27;101585.63;4192767;28;20044;-62
2022/09/06 00:19:45;;;;;;;4.10;2.80;;;;;;;26.34;35.10;101590.19;4191517;28;20102;-62
2022/09/06 00:21:46;;;;;;;4.30;2.78;;;;;;;26.34;34.93;101594.94;4193197;28;20024;-62
2022/09/06 00:23:47;;;;;;;3.03;2.60;;;;;;;26.34;34.74;101598.59;4211337;28;20048;-62
2022/09/06 00:25:49;;;;;;;2.92;2.65;;;;;;;26.32;34.95;101594.41;4216032;28;20460;-62
2022/09/06 00:27:58;;;;;;;4.95;2.80;;;;;;;26.33;34.88;101605.31;4210560;28;20053;-62
2022/09/06 00:29:59;;;;;;;2.42;2.22;;;;;;;26.30;34.48;101605.94;4182518;28;20443;-62
2022/09/06 00:32:01;;;;;;;3.30;2.78;;;;;;;26.34;34.80;101604.22;4193843;28;20044;-63
2022/09/06 00:34:02;;;;;;;3.47;2.60;;;;;;;26.26;34.96;101593.66;4187157;28;20052;-63
2022/09/06 00:36:04;;;;;;;7.65;3.35;;;;;;;26.34;35.08;101607.03;4216361;28;20089;-63
2022/09/06 00:38:05;;;;;;;6.38;2.95;;;;;;;26.33;35.11;101610.09;4206015;28;20459;-63
2022/09/06 00:40:10;;;;;;;4.63;2.83;;;;;;;26.30;34.97;101605.94;4202016;28;20042;-62
2022/09/06 00:42:13;;;;;;;3.40;3.10;;;;;;;26.28;35.10;101604.56;4195419;28;20389;-62
2022/09/06 00:44:17;;;;;;;4.22;3.00;;;;;;;26.30;35.02;101605.94;4196997;28;20085;-62
2022/09/06 00:46:22;;;;;;;3.80;2.78;;;;;;;26.32;34.80;101617.69;4182956;28;20102;-62
2022/09/06 00:48:24;;;;;;;3.00;2.60;;;;;;;26.33;34.82;101616.56;4209529;28;20044;-62
2022/09/06 00:50:26;;;;;;;5.07;3.35;;;;;;;26.32;34.62;101619.66;4215502;28;20089;-62
2022/09/06 00:52:29;;;;;;;4.70;3.10;;;;;;;26.23;34.68;101602.66;4204192;28;20063;-62
2022/09/06 00:54:31;;;;;;;3.17;2.70;;;;;;;26.31;34.62;101618.84;4215406;28;20090;-62
2022/09/06 00:56:36;;;;;;;4.00;2.95;;;;;;;26.31;34.90;101624.44;4196926;28;20037;-62
2022/09/06 00:58:38;;;;;;;3.20;2.90;;;;;;;26.32;34.78;101620.50;4190489;28;20107;-62
2022/09/06 01:00:40;;;;;;;4.18;3.10;;;;;;;26.10;34.41;101589.38;4195261;28;20045;-62
2022/09/06 01:02:50;;;;;;;4.20;3.17;;;;;;;26.31;34.50;101618.00;4213415;28;20101;-62
2022/09/06 01:04:53;;;;;;;3.75;3.28;;;;;;;26.19;35.30;101609.19;4210302;28;20455;-63
2022/09/06 01:07:06;;;;;;;4.43;2.85;;;;;;;26.32;35.35;101628.91;4204837;28;20488;-62
2022/09/06 01:09:13;;;;;;;4.40;3.20;;;;;;;26.35;35.14;101627.50;4193565;28;20044;-62
2022/09/06 01:11:51;;;;;;;4.15;3.47;;;;;;;26.35;34.96;101633.94;4187046;28;20427;-62
2022/09/06 01:13:58;;;;;;;5.45;3.67;;;;;;;26.38;35.13;101628.84;4182720;28;20053;-63
2022/09/06 01:15:59;;;;;;;5.13;3.83;;;;;;;26.36;35.09;101630.00;4203670;28;20044;-62
2022/09/06 01:18:39;;;;;;;4.07;3.33;;;;;;;26.36;35.62;101624.38;4215329;28;20433;-63
2022/09/06 01:21:03;;;;;;;4.38;3.30;;;;;;;26.39;35.69;101631.38;4139941;28;20119;-62
2022/09/06 01:23:31;;;;;;;4.93;3.85;;;;;;;26.40;35.60;101620.97;4146876;28;20104;-62
2022/09/06 01:26:08;;;;;;;4.45;3.65;;;;;;;26.40;35.14;101627.41;4160197;28;20487;-62
2022/09/06 01:28:31;;;;;;;5.43;3.55;;;;;;;26.40;35.35;101620.97;4198762;28;20037;-63
2022/09/06 01:30:42;;;;;;;4.90;3.63;;;;;;;26.34;35.27;101617.38;4208564;28;20483;-62
2022/09/06 01:33:02;;;;;;;4.35;3.95;;;;;;;26.35;35.35;101619.91;4209856;28;20437;-63
2022/09/06 01:35:09;;;;;;;5.80;3.25;;;;;;;26.35;35.08;101619.91;4212609;28;20052;-64
2022/09/06 01:37:14;;;;;;;4.15;3.17;;;;;;;26.35;35.54;101619.91;4200324;28;20045;-63
2022/09/06 01:39:27;;;;;;;3.58;3.22;;;;;;;26.29;35.92;101609.88;4211753;28;20048;-63
2022/09/06 01:41:29;;;;;;;4.50;3.13;;;;;;;26.39;35.55;101616.47;4185614;28;20494;-62
2022/09/06 01:43:35;;;;;;;4.97;3.40;;;;;;;26.36;35.48;101615.97;4203653;28;20105;-62
2022/09/06 01:45:54;;;;;;;5.22;3.63;;;;;;;26.38;35.36;101606.41;4208402;28;20044;-62
2022/09/06 01:48:01;;;;;;;4.10;3.70;;;;;;;26.36;35.08;101615.97;4198411;28;20033;-62
2022/09/06 01:50:39;;;;;;;4.55;3.20;;;;;;;26.32;35.35;101614.88;4215339;28;20093;-62
2022/09/06 01:52:58;;;;;;;6.35;3.60;;;;;;;26.34;35.12;101612.63;4189909;28;20044;-62
2022/09/06 01:55:06;;;;;;;3.78;3.38;;;;;;;26.35;34.87;101608.69;4182106;28;20091;-62
2022/09/06 01:57:19;;;;;;;4.05;3.40;;;;;;;26.34;35.16;101611.78;4191894;28;20129;-62
2022/09/06 01:59:56;;;;;;;4.45;3.42;;;;;;;26.33;35.31;101610.94;4214957;28;20093;-62
2022/09/06 02:02:11;;;;;;;4.28;3.65;;;;;;;26.34;34.92;101612.63;4211549;28;20040;-61
2022/09/06 02:04:39;;;;;;;3.83;3.38;;;;;;;26.33;34.75;101610.94;4207636;28;20044;-62
2022/09/06 02:06:49;;;;;;;3.55;3.25;;;;;;;26.26;34.93;101599.28;4189618;28;20489;-62
2022/09/06 02:09:01;;;;;;;3.80;3.40;;;;;;;26.34;35.46;101601.41;4184961;28;20049;-62
2022/09/06 02:11:05;;;;;;;4.38;3.53;;;;;;;26.35;35.64;101602.25;4191064;28;20040;-63
2022/09/06 02:13:09;;;;;;;3.88;3.58;;;;;;;26.39;35.43;101603.31;4198109;28;20392;-62
2022/09/06 02:15:33;;;;;;;4.05;3.50;;;;;;;26.35;35.58;101608.69;4192743;28;20558;-62
2022/09/06 02:17:41;;;;;;;8.02;3.40;;;;;;;26.38;35.15;101600.78;4183370;28;20097;-63
2022/09/06 02:20:12;;;;;;;4.10;3.70;;;;;;;26.38;34.99;101600.78;4181850;28;20048;-62
2022/09/06 02:22:17;;;;;;;3.90;3.50;;;;;;;26.30;35.37;101594.72;4179438;28;20545;-63
2022/09/06 02:24:25;;;;;;;3.90;3.45;;;;;;;26.35;35.13;101605.88;4185334;28;20102;-63
2022/09/06 02:26:29;;;;;;;3.70;3.10;;;;;;;26.33;34.96;101599.72;4191855;28;20048;-63
2022/09/06 02:28:30;;;;;;;3.58;3.03;;;;;;;26.34;34.81;101604.22;4192747;28;20040;-62
2022/09/06 02:30:35;;;;;;;3.75;3.25;;;;;;;26.30;34.89;101589.13;4208805;28;20036;-60
2022/09/06 02:32:45;;;;;;;4.95;3.47;;;;;;;26.34;35.36;101600.56;4213625;28;20044;-63
2022/09/06 02:34:50;;;;;;;3.97;3.20;;;;;;;26.32;35.66;101598.06;4205053;28;20036;-63
2022/09/06 02:36:51;;;;;;;3.83;3.42;;;;;;;26.21;35.84;101579.72;4183767;28;20052;-63
2022/09/06 02:38:53;;;;;;;3.55;3.13;;;;;;;26.33;35.70;101598.88;4182387;28;20095;-62
2022/09/06 02:40:55;;;;;;;3.25;2.72;;;;;;;26.33;35.44;101588.50;4212147;28;20499;-63
2022/09/06 02:42:57;;;;;;;4.55;3.70;;;;;;;26.39;34.97;101602.44;4214353;28;20040;-61
2022/09/06 02:44:58;;;;;;;4.20;3.30;;;;;;;26.35;35.01;101603.06;4208030;28;20149;-61
2022/09/06 02:47:00;;;;;;;4.18;3.38;;;;;;;26.29;35.32;101595.84;4214513;28;20109;-65
2022/09/06 02:49:04;;;;;;;3.55;2.97;;;;;;;26.35;35.02;101608.69;4214291;28;20097;-63
2022/09/06 02:51:07;;;;;;;3.58;2.97;;;;;;;26.37;35.26;101611.19;4193401;28;20107;-63
2022/09/06 02:53:13;;;;;;;4.80;3.15;;;;;;;26.36;35.22;101615.13;4180615;28;20489;-62
2022/09/06 02:55:17;;;;;;;4.22;2.80;;;;;;;26.36;35.12;101603.91;4189102;28;20043;-62
2022/09/06 02:57:18;;;;;;;3.75;3.35;;;;;;;26.29;35.74;101604.25;4197155;28;20106;-62
2022/09/06 02:59:20;;;;;;;3.53;3.22;;;;;;;26.36;36.05;101601.94;4198128;28;20094;-62
2022/09/06 03:01:21;;;;;;;3.47;3.17;;;;;;;26.34;35.92;101606.16;4210670;28;20101;-62
2022/09/06 03:03:23;;;;;;;6.65;3.30;;;;;;;26.40;35.87;101606.94;4213870;28;20036;-62
2022/09/06 03:05:26;;;;;;;3.20;2.88;;;;;;;26.32;35.81;101592.44;4199781;28;20037;-60
2022/09/06 03:07:30;;;;;;;3.60;3.28;;;;;;;26.29;35.68;101593.03;4196044;28;20040;-63
2022/09/06 03:09:32;;;;;;;3.35;3.05;;;;;;;26.38;36.24;101606.41;4200258;28;20089;-62
2022/09/06 03:11:33;;;;;;;3.10;2.80;;;;;;;26.31;36.21;101595.56;4213181;28;20036;-62
2022/09/06 03:13:34;;;;;;;5.47;3.42;;;;;;;26.41;36.55;101600.19;4213772;28;20040;-63
2022/09/06 03:15:35;;;;;;;5.97;3.17;;;;;;;26.43;36.47;101614.75;4207930;28;20048;-62
2022/09/06 03:17:38;;;;;;;3.80;3.33;;;;;;;26.42;36.12;101613.06;4213851;28;20040;-61
2022/09/06 03:19:39;;;;;;;4.50;3.10;;;;;;;26.41;36.44;101611.41;4210184;28;20360;-62
2022/09/06 03:21:40;;;;;;;5.18;2.97;;;;;;;26.41;36.64;101612.25;4184579;28;20480;-62
2022/09/06 03:23:44;;;;;;;5.47;3.25;;;;;;;26.40;36.83;101604.97;4189442;28;20044;-62
2022/09/06 03:25:46;;;;;;;7.87;3.20;;;;;;;26.44;36.45;101617.31;4181877;28;20037;-62
2022/09/06 03:27:51;;;;;;;5.03;2.92;;;;;;;26.46;35.96;101608.56;4188469;28;20067;-62
2022/09/06 03:29:52;;;;;;;3.67;3.00;;;;;;;26.33;36.04;101588.50;4212830;28;20073;-62
2022/09/06 03:31:53;;;;;;;4.43;3.50;;;;;;;26.43;36.68;101609.13;4213129;28;20040;-62
2022/09/06 03:33:54;;;;;;;3.60;2.80;;;;;;;26.43;36.94;101606.31;4207730;28;20109;-62
2022/09/06 03:35:58;;;;;;;3.58;2.72;;;;;;;26.44;36.71;101605.25;4188190;28;20059;-62
2022/09/06 03:37:59;;;;;;;5.38;3.58;;;;;;;26.45;36.44;101607.72;4190650;28;20089;-62
2022/09/06 03:40:03;;;;;;;3.58;2.63;;;;;;;26.45;36.23;101602.13;4213859;28;20062;-62
2022/09/06 03:42:04;;;;;;;5.30;3.13;;;;;;;26.44;36.14;101608.03;4213764;28;20098;-62
2022/09/06 03:44:05;;;;;;;3.85;3.05;;;;;;;26.43;36.50;101603.50;4207822;28;20044;-62
2022/09/06 03:46:07;;;;;;;4.60;2.50;;;;;;;26.43;37.10;101603.50;4213868;28;20425;-62
2022/09/06 03:48:10;;;;;;;3.30;2.60;;;;;;;26.45;36.50;101601.28;4210849;28;20036;-62
2022/09/06 03:50:12;;;;;;;5.38;2.92;;;;;;;26.47;36.14;101601.81;4198771;28;20036;-61
2022/09/06 03:52:13;;;;;;;5.25;3.00;;;;;;;26.46;36.23;101597.34;4179638;28;20041;-61
2022/09/06 03:54:17;;;;;;;3.47;2.60;;;;;;;26.44;36.39;101591.22;4205284;28;20101;-62
2022/09/06 03:56:22;;;;;;;3.10;2.33;;;;;;;26.45;36.91;101602.13;4213850;28;20487;-61
2022/09/06 03:58:24;;;;;;;3.03;2.70;;;;;;;26.46;36.60;101598.16;4210236;28;20089;-62
2022/09/06 04:00:25;;;;;;;2.80;2.60;;;;;;;26.48;36.52;101595.06;4213686;28;20035;-62
2022/09/06 04:02:27;;;;;;;3.22;2.75;;;;;;;26.48;35.99;101586.63;4213010;28;20040;-61
2022/09/06 04:04:28;;;;;;;7.97;2.65;;;;;;;26.47;36.20;101597.03;4197214;28;20053;-61
2022/09/06 04:06:29;;;;;;;3.03;2.40;;;;;;;26.45;36.07;101595.69;4180416;28;20044;-61
2022/09/06 04:08:31;;;;;;;3.45;2.70;;;;;;;26.44;36.07;101592.03;4193648;28;20044;-62
2022/09/06 04:10:33;;;;;;;3.45;2.50;;;;;;;26.39;36.09;101585.63;4216097;28;20036;-61
2022/09/06 04:12:37;;;;;;;3.58;2.83;;;;;;;26.34;35.81;101584.56;4216179;28;20093;-61
2022/09/06 04:14:41;;;;;;;2.88;2.58;;;;;;;26.21;35.70;101562.03;4210688;28;20484;-61
2022/09/06 04:16:42;;;;;;;2.53;2.33;;;;;;;26.40;35.64;101592.91;4192409;28;20037;-62
2022/09/06 04:18:43;;;;;;;2.65;2.45;;;;;;;26.40;35.67;101587.31;4195006;28;20028;-62
2022/09/06 04:20:48;;;;;;;2.80;2.55;;;;;;;26.39;36.17;101602.44;4201335;28;20604;-61
2022/09/06 04:22:49;;;;;;;3.22;2.78;;;;;;;26.32;36.03;101586.00;4197431;28;20028;-61
2022/09/06 04:24:51;;;;;;;2.88;2.40;;;;;;;26.40;35.62;101598.53;4199149;28;20413;-61
2022/09/06 04:26:52;;;;;;;3.40;2.88;;;;;;;26.43;35.69;101600.72;4198758;28;20044;-61
2022/09/06 04:28:53;;;;;;;2.90;2.53;;;;;;;26.43;35.46;101597.91;4194370;28;20041;-61
2022/09/06 04:30:59;;;;;;;2.58;2.20;;;;;;;26.39;35.48;101596.84;4199179;28;20028;-62
2022/09/06 04:33:00;;;;;;;2.33;2.13;;;;;;;26.39;35.65;101594.88;4203885;28;20044;-61
2022/09/06 04:35:05;;;;;;;4.00;2.58;;;;;;;26.23;35.63;101571.81;4212937;28;20097;-60
2022/09/06 04:37:06;;;;;;;3.60;2.63;;;;;;;26.38;35.61;101592.38;4204459;28;20114;-61
2022/09/06 04:39:07;;;;;;;3.33;2.45;;;;;;;26.38;35.58;101592.38;4186191;28;20274;-61
2022/09/06 04:41:11;;;;;;;3.40;2.28;;;;;;;25.78;35.55;101492.78;4197993;28;20495;-60
2022/09/06 04:43:18;;;;;;;4.45;2.70;;;;;;;26.33;35.45;101585.69;4194536;28;20040;-60
2022/09/06 04:45:19;;;;;;;3.22;2.47;;;;;;;26.35;35.06;101589.03;4197662;28;20041;-61
2022/09/06 04:47:20;;;;;;;4.00;2.22;;;;;;;26.19;35.02;101565.13;4199130;28;20040;-61
2022/09/06 04:49:22;;;;;;;3.42;2.53;;;;;;;26.28;35.09;101577.34;4198939;28;20094;-61
2022/09/06 04:51:24;;;;;;;2.88;2.22;;;;;;;26.31;35.08;101578.72;4196008;28;20086;-62
2022/09/06 04:53:25;;;;;;;3.78;2.45;;;;;;;26.30;35.12;101574.25;4183158;28;20041;-60
2022/09/06 04:55:30;;;;;;;4.40;2.38;;;;;;;26.31;35.14;101573.13;4183623;28;20033;-62
2022/09/06 04:57:31;;;;;;;3.08;2.00;;;;;;;26.30;34.82;101577.91;4184662;28;20037;-62
2022/09/06 04:59:38;;;;;;;2.53;2.20;;;;;;;26.28;34.92;101574.53;4199102;28;20044;-59
2022/09/06 05:01:39;;;;;;;3.67;2.00;;;;;;;26.29;35.04;101576.22;4198864;28;20044;-59
2022/09/06 05:03:41;;;;;;;3.70;2.53;;;;;;;26.30;35.68;101574.25;4198981;28;20090;-59
2022/09/06 05:05:42;;;;;;;3.65;2.10;;;;;;;26.28;35.88;101556.88;4198784;28;20052;-61
2022/09/06 05:07:43;;;;;;;3.95;2.47;;;;;;;26.27;35.26;101556.03;4193309;28;20553;-60
2022/09/06 05:09:45;;;;;;;2.90;1.98;;;;;;;26.30;35.04;101558.25;4199236;28;20024;-60
2022/09/06 05:11:49;;;;;;;3.63;2.03;;;;;;;26.31;34.92;101565.53;4182914;28;20045;-60
2022/09/06 05:13:59;;;;;;;2.67;2.00;;;;;;;26.20;35.09;101547.16;4182205;28;20045;-60
2022/09/06 05:16:07;;;;;;;3.67;2.15;;;;;;;26.29;35.61;101552.94;4195734;28;20078;-61
2022/09/06 05:18:08;;;;;;;2.83;2.00;;;;;;;26.32;35.78;101544.75;4203586;28;20036;-62
2022/09/06 05:20:11;;;;;;;2.08;1.88;;;;;;;26.33;35.78;101538.00;4184306;28;20033;-61
2022/09/06 05:22:12;;;;;;;2.30;2.10;;;;;;;26.33;35.35;101543.59;4181537;28;20613;-61
2022/09/06 05:24:14;;;;;;;3.00;2.05;;;;;;;26.32;35.26;101541.94;4189131;28;20028;-61
2022/09/06 05:26:15;;;;;;;2.90;2.10;;;;;;;26.05;34.91;101500.53;4198681;28;20438;-61
2022/09/06 05:28:17;;;;;;;3.58;2.15;;;;;;;26.30;34.94;101544.22;4198562;28;20044;-60
2022/09/06 05:30:18;;;;;;;2.22;2.03;;;;;;;26.30;34.96;101538.63;4198953;28;20110;-60
2022/09/06 05:32:20;;;;;;;3.92;2.15;;;;;;;26.29;34.76;101539.72;4197827;28;20484;-60
2022/09/06 05:34:21;;;;;;;2.53;1.83;;;;;;;26.27;34.88;101535.59;4189956;28;20070;-60
2022/09/06 05:36:23;;;;;;;2.45;2.10;;;;;;;26.22;34.91;101528.06;4181916;28;20427;-60
2022/09/06 05:38:24;;;;;;;2.58;1.90;;;;;;;26.22;35.22;101530.88;4181898;28;20095;-60
2022/09/06 05:40:26;;;;;;;4.28;2.33;;;;;;;26.24;35.63;101537.00;4181884;28;20037;-60
2022/09/06 05:42:30;;;;;;;2.20;2.00;;;;;;;26.22;35.50;101528.06;4195784;28;20373;-61
2022/09/06 05:44:36;;;;;;;2.30;2.10;;;;;;;26.28;35.40;101531.63;4192881;28;20110;-61
2022/09/06 05:46:44;;;;;;;2.05;1.80;;;;;;;26.28;35.22;101529.66;4198288;28;20032;-60
2022/09/06 05:48:58;;;;;;;2.83;2.05;;;;;;;26.28;35.18;101524.03;4198287;28;20546;-61
2022/09/06 05:51:01;;;;;;;1.90;1.80;;;;;;;26.28;35.58;101524.03;4191389;28;20102;-60
2022/09/06 05:53:05;;;;;;;1.90;1.80;;;;;;;26.29;36.04;101524.88;4192742;28;20546;-60
2022/09/06 05:55:07;;;;;;;1.85;1.73;;;;;;;26.19;35.46;101503.41;4181948;28;20095;-60
2022/09/06 05:57:11;;;;;;;2.83;1.90;;;;;;;26.30;35.36;101518.97;4196847;28;20427;-61
2022/09/06 05:59:12;;;;;;;2.08;1.67;;;;;;;26.15;35.34;101496.75;4181769;28;20041;-60
2022/09/06 06:01:18;;;;;;;1.75;1.60;;;;;;;26.28;35.05;101518.44;4181345;28;20045;-60
2022/09/06 06:03:19;;;;;;;2.35;2.15;;;;;;;26.24;35.58;101511.75;4175657;28;20040;-60
2022/09/06 06:05:20;;;;;;;3.03;1.65;;;;;;;26.27;35.94;101511.16;4181494;28;20094;-60
2022/09/06 06:07:22;;;;;;;2.90;1.80;;;;;;;26.30;35.89;101509.72;4197409;28;20070;-60
2022/09/06 06:09:23;;;;;;;2.10;1.90;;;;;;;26.31;35.49;101502.97;4198014;28;20041;-61
2022/09/06 06:11:25;;;;;;;2.50;1.83;;;;;;;26.30;35.01;101504.94;4197513;28;20044;-60
2022/09/06 06:13:38;;;;;;;1.90;1.80;;;;;;;26.30;35.21;101510.56;4198309;28;20040;-60
2022/09/06 06:15:39;;;;;;;2.45;2.03;;;;;;;26.31;35.32;101505.78;4197837;28;20106;-60
2022/09/06 06:17:40;;;;;;;1.85;1.75;;;;;;;26.29;34.83;101496.81;4197080;28;20557;-61
2022/09/06 06:19:44;;;;;;;2.35;1.70;;;;;;;26.27;34.95;101493.50;4197830;28;20177;-61
2022/09/06 06:21:45;;;;;;;2.15;1.50;;;;;;;26.24;35.05;101494.09;4197592;28;20028;-60
2022/09/06 06:23:53;;;;;;;3.17;1.92;;;;;;;26.24;34.72;101497.72;4191546;28;20033;-60
2022/09/06 06:25:55;;;;;;;2.72;1.65;;;;;;;26.23;34.78;101498.88;4181191;28;20195;-60
2022/09/06 06:27:56;;;;;;;1.55;1.45;;;;;;;26.15;35.32;101479.91;4181301;28;20113;-61
2022/09/06 06:29:57;;;;;;;2.08;1.70;;;;;;;26.26;35.90;101486.22;4181402;28;20037;-60
2022/09/06 06:31:59;;;;;;;2.20;1.70;;;;;;;26.27;35.66;101490.69;4180633;28;20040;-60
2022/09/06 06:34:02;;;;;;;2.55;2.03;;;;;;;26.19;35.35;101474.53;4181350;28;20045;-60
2022/09/06 06:36:19;;;;;;;2.00;1.80;;;;;;;26.27;34.86;101483.09;4181343;28;20025;-60
2022/09/06 06:38:21;;;;;;;1.70;1.50;;;;;;;26.25;35.21;101474.16;4181023;28;20090;-61
2022/09/06 06:40:22;;;;;;;2.30;2.00;;;;;;;26.24;35.69;101480.91;4189875;28;20040;-61
2022/09/06 06:42:23;;;;;;;1.67;1.58;;;;;;;26.26;35.88;101470.22;4197360;28;20349;-60
2022/09/06 06:44:26;;;;;;;1.75;1.55;;;;;;;26.24;35.47;101469.69;4197598;28;20504;-61
2022/09/06 06:46:30;;;;;;;2.97;1.90;;;;;;;26.30;35.38;101459.22;4198026;28;20484;-60
2022/09/06 06:48:35;;;;;;;1.92;1.77;;;;;;;26.12;35.21;101430.06;4183058;28;20037;-60
2022/09/06 06:50:36;;;;;;;1.77;1.67;;;;;;;26.20;35.09;101454.59;4188246;28;20553;-60
2022/09/06 06:52:38;;;;;;;1.52;1.42;;;;;;;26.23;35.78;101456.78;4189685;28;20053;-60
2022/09/06 06:54:40;;;;;;;2.13;1.92;;;;;;;26.27;35.94;101455.03;4192042;28;20446;-60
2022/09/06 06:56:43;;;;;;;1.70;1.60;;;;;;;26.28;35.58;101451.09;4197682;28;20041;-60
2022/09/06 06:58:47;;;;;;;1.60;1.50;;;;;;;26.24;35.55;101443.59;4197131;28;20040;-60
2022/09/06 07:00:48;;;;;;;1.53;1.43;;;;;;;26.29;35.54;101452.75;4197666;28;20036;-61
2022/09/06 07:02:51;;;;;;;1.90;1.70;;;;;;;26.26;35.35;101456.19;4196669;28;20037;-61
2022/09/06 07:04:53;;;;;;;1.52;1.40;;;;;;;26.23;35.14;101454.00;4197689;28;20060;-61
2022/09/06 07:06:55;;;;;;;1.50;1.33;;;;;;;26.26;35.00;101455.38;4196087;28;20036;-63
2022/09/06 07:08:57;;;;;;;1.88;1.77;;;;;;;26.24;35.14;101452.00;4194885;28;20106;-62
2022/09/06 07:10:59;;;;;;;1.52;1.42;;;;;;;26.23;35.28;101442.75;4197203;28;20090;-61
2022/09/06 07:13:04;;;;;;;2.20;1.80;;;;;;;26.22;35.09;101441.09;4197353;28;20040;-61
2022/09/06 07:15:14;;;;;;;1.90;1.50;;;;;;;26.21;35.12;101445.06;4196409;28;20040;-61
2022/09/06 07:17:15;;;;;;;1.58;1.48;;;;;;;26.23;35.82;101442.75;4197413;28;20041;-61
2022/09/06 07:19:16;;;;;;;1.85;1.50;;;;;;;26.26;35.64;101441.34;4197405;28;20106;-61
2022/09/06 07:21:24;;;;;;;2.08;1.48;;;;;;;26.26;35.31;101430.94;4196760;28;20036;-60
2022/09/06 07:23:26;;;;;;;1.58;1.38;;;;;;;26.26;35.04;101435.72;4197159;28;20434;-61
2022/09/06 07:25:28;;;;;;;1.95;1.85;;;;;;;26.07;35.14;101404.88;4206498;28;20043;-60
2022/09/06 07:27:29;;;;;;;1.52;1.40;;;;;;;26.22;35.33;101429.06;4209132;28;20552;-61
2022/09/06 07:29:39;;;;;;;1.58;1.48;;;;;;;26.20;35.28;101420.94;4187603;28;20443;-61
2022/09/06 07:31:40;;;;;;;1.98;1.70;;;;;;;26.21;35.15;101421.78;4211514;28;20086;-62
2022/09/06 07:33:41;;;;;;;1.80;1.70;;;;;;;26.18;34.91;101417.59;4213733;28;20040;-60
2022/09/06 07:35:52;;;;;;;1.58;1.40;;;;;;;26.19;34.88;101430.50;4203074;28;20161;-61
2022/09/06 07:37:59;;;;;;;2.28;1.65;;;;;;;25.99;35.68;101392.41;4210192;28;20048;-61
2022/09/06 07:40:00;;;;;;;1.95;1.60;;;;;;;26.19;36.13;101415.63;4207203;28;20040;-60
2022/09/06 07:42:02;;;;;;;1.60;1.50;;;;;;;26.20;35.85;101415.31;4186154;28;20103;-60
2022/09/06 07:44:03;;;;;;;2.50;1.80;;;;;;;26.22;35.42;101410.25;4214375;28;20028;-60
2022/09/06 07:46:07;;;;;;;1.60;1.50;;;;;;;26.22;35.42;101407.44;4214455;28;20036;-61
2022/09/06 07:48:09;;;;;;;1.60;1.50;;;;;;;26.22;35.51;101412.22;4216860;28;20364;-60
2022/09/06 07:50:13;;;;;;;1.83;1.73;;;;;;;26.21;35.69;101411.41;4214535;28;20528;-61
2022/09/06 07:52:14;;;;;;;1.83;1.73;;;;;;;26.19;35.53;101407.22;4216114;28;20438;-60
2022/09/06 07:54:18;;;;;;;1.52;1.40;;;;;;;26.18;35.56;101400.78;4212954;28;20114;-61
2022/09/06 07:56:23;;;;;;;1.50;1.40;;;;;;;26.18;35.10;101405.56;4193996;28;20078;-61
2022/09/06 07:58:28;;;;;;;1.50;1.40;;;;;;;26.10;35.75;101388.28;4214894;28;20036;-61
2022/09/06 08:00:29;;;;;;;1.40;1.30;;;;;;;26.17;36.13;101393.50;4214644;28;20044;-61
2022/09/06 08:02:30;;;;;;;1.83;1.67;;;;;;;26.17;36.02;101382.28;4215167;28;20093;-61
2022/09/06 08:04:32;;;;;;;1.70;1.60;;;;;;;26.20;35.73;101392.03;4214044;28;20101;-61
2022/09/06 08:06:41;;;;;;;1.52;1.42;;;;;;;26.19;35.18;101384.78;4214919;28;20044;-62
2022/09/06 08:08:45;;;;;;;1.52;1.42;;;;;;;26.18;35.48;101392.34;4212528;28;20043;-60
2022/09/06 08:10:50;;;;;;;1.60;1.50;;;;;;;26.14;35.66;101390.47;4188189;28;20045;-61
2022/09/06 08:12:53;;;;;;;;;;;;;;;26.17;35.08;101389.88;4213708;28;20113;-60
2022/09/06 08:14:55;;;;;;;1.40;1.30;;;;;;;26.07;35.11;101372.06;4202984;28;19971;-60
2022/09/06 08:16:56;;;;;;;1.42;1.33;;;;;;;26.19;35.27;101382.78;4216623;28;20101;-62
2022/09/06 08:19:00;;;;;;;1.35;1.25;;;;;;;26.15;35.37;101378.94;4202402;28;20093;-61
2022/09/06 08:21:14;;;;;;;1.25;1.15;;;;;;;26.17;36.09;101378.66;4214784;28;20082;-61
2022/09/06 08:23:15;;;;;;;1.90;1.70;;;;;;;26.09;35.62;101368.94;4212985;28;20553;-61
2022/09/06 08:25:16;;;;;;;1.92;1.55;;;;;;;26.18;35.63;101377.50;4200992;28;20446;-61
2022/09/06 08:27:18;;;;;;;1.30;1.20;;;;;;;26.10;35.64;101367.81;4199690;28;20125;-62
2022/09/06 08:29:19;;;;;;;1.73;1.58;;;;;;;26.11;35.40;101372.28;4210172;28;20036;-62
2022/09/06 08:31:23;;;;;;;1.48;1.38;;;;;;;26.15;35.85;101373.31;4206788;28;20097;-62
2022/09/06 08:33:26;;;;;;;1.52;1.40;;;;;;;26.10;36.07;101370.63;4202332;28;20565;-61
2022/09/06 08:35:30;;;;;;;1.63;1.50;;;;;;;26.18;36.23;101381.13;4191072;28;20098;-61
2022/09/06 08:37:31;;;;;;;1.50;1.40;;;;;;;26.17;35.83;101379.47;4194448;28;20114;-60
2022/09/06 08:39:32;;;;;;;1.55;1.45;;;;;;;26.16;35.47;101379.75;4199044;28;20105;-60
2022/09/06 08:41:48;;;;;;;1.42;1.27;;;;;;;26.15;35.44;101378.94;4198634;28;20090;-60
2022/09/06 08:43:55;;;;;;;1.70;1.60;;;;;;;26.16;35.38;101374.16;4193469;28;20041;-62
2022/09/06 08:45:57;;;;;;;2.00;1.70;;;;;;;26.14;35.32;101366.06;4192926;28;20438;-61
2022/09/06 08:47:58;;;;;;;1.52;1.42;;;;;;;26.13;35.16;101369.19;4198395;28;20561;-61
2022/09/06 08:50:05;;;;;;;1.48;1.38;;;;;;;26.12;35.44;101368.34;4198122;28;20037;-61
2022/09/06 08:52:20;;;;;;;2.05;1.73;;;;;;;26.10;35.63;101365.00;4199004;28;20369;-61
2022/09/06 08:54:30;;;;;;;1.55;1.45;;;;;;;26.13;36.24;101367.22;4196690;28;20074;-62
2022/09/06 08:56:40;;;;;;;1.13;1.05;;;;;;;26.14;35.58;101359.63;4193945;28;20028;-59
2022/09/06 08:58:57;;;;;;;1.50;1.40;;;;;;;26.13;35.80;101353.19;4199171;28;20357;-62
2022/09/06 09:01:17;;;;;;;1.48;1.38;;;;;;;26.10;35.72;101359.41;4201665;28;20061;-59
2022/09/06 09:03:45;;;;;;;1.58;1.48;;;;;;;26.13;35.58;101364.41;4198829;28;20048;-61
2022/09/06 09:05:51;;;;;;;1.40;1.30;;;;;;;26.13;35.34;101347.56;4190213;28;20044;-62
2022/09/06 09:08:04;;;;;;;1.80;1.60;;;;;;;26.12;35.12;101350.69;4197569;28;20045;-60
2022/09/06 09:10:31;;;;;;;1.20;1.10;;;;;;;26.08;35.71;101339.25;4198581;28;20097;-60
2022/09/06 09:12:44;;;;;;;1.23;1.13;;;;;;;26.10;35.92;101334.16;4184330;28;20102;-61
2022/09/06 09:14:49;;;;;;;1.50;1.40;;;;;;;26.13;35.40;101336.34;4198944;28;20861;-61
2022/09/06 09:16:53;;;;;;;1.50;1.40;;;;;;;26.13;35.48;101339.16;4198878;28;20368;-60
2022/09/06 09:19:08;;;;;;;3.10;1.67;;;;;;;26.12;35.70;101331.88;4205256;28;20040;-60
2022/09/06 09:21:09;;;;;;;1.65;1.55;;;;;;;26.10;35.43;101331.34;4199574;28;20494;-60
2022/09/06 09:23:11;;;;;;;1.30;1.20;;;;;;;25.96;35.62;101310.84;4215534;28;20032;-61
2022/09/06 09:25:22;;;;;;;1.85;1.27;;;;;;;26.02;35.37;101323.63;4191361;28;20098;-61
2022/09/06 09:27:26;;;;;;;2.33;1.52;;;;;;;25.94;35.80;101304.72;4198645;28;20033;-60
2022/09/06 09:29:27;;;;;;;1.33;1.23;;;;;;;26.08;36.38;101322.41;4198909;28;20036;-61
2022/09/06 09:31:55;;;;;;;1.73;1.00;;;;;;;25.92;35.56;101299.41;4198608;28;20029;-60
2022/09/06 09:33:56;;;;;;;1.40;1.30;;;;;;;26.11;35.50;101324.59;4198176;28;20131;-60
2022/09/06 09:36:01;;;;;;;1.45;1.30;;;;;;;26.06;35.26;101314.28;4198511;28;20044;-60
2022/09/06 09:38:07;;;;;;;1.48;1.33;;;;;;;26.09;35.36;101318.47;4198578;28;20102;-60
2022/09/06 09:40:27;;;;;;;1.88;1.40;;;;;;;26.05;35.64;101317.41;4197994;28;20110;-61
2022/09/06 09:42:35;;;;;;;1.50;1.30;;;;;;;26.07;35.20;101315.13;4198131;28;20093;-61